sensor_id;sensor_type;location;lat;lon;timestamp;P1;durP1;ratioP1;P2;durP2;ratioP2
2257;SDS011;1136;51.574;7.706;2023-07-28T00:02:11;2.57;;;2.47;;
2257;SDS011;1136;51.574;7.706;2023-07-28T00:05:18;2.40;;;2.30;;
2257;SDS011;1136;51.574;7.706;2023-07-28T00:08:27;3.30;;;3.10;;
2257;SDS011;1136;51.574;7.706;2023-07-28T00:11:34;5.17;;;2.70;;
2257;SDS011;1136;51.574;7.706;2023-07-28T00:14:42;4.80;;;2.97;;
2257;SDS011;1136;51.574;7.706;2023-07-28T00:17:49;3.33;;;3.03;;
2257;SDS011;1136;51.574;7.706;2023-07-28T00:20:56;5.03;;;3.63;;
2257;SDS011;1136;51.574;7.706;2023-07-28T00:24:04;4.77;;;3.80;;
2257;SDS011;1136;51.574;7.706;2023-07-28T00:27:11;4.43;;;3.90;;
2257;SDS011;1136;51.574;7.706;2023-07-28T00:30:21;4.40;;;4.10;;
2257;SDS011;1136;51.574;7.706;2023-07-28T00:33:30;8.73;;;4.60;;
2257;SDS011;1136;51.574;7.706;2023-07-28T00:36:37;8.90;;;4.30;;
2257;SDS011;1136;51.574;7.706;2023-07-28T00:39:45;4.23;;;3.90;;
2257;SDS011;1136;51.574;7.706;2023-07-28T00:42:52;5.50;;;5.00;;
2257;SDS011;1136;51.574;7.706;2023-07-28T00:45:59;8.40;;;5.50;;
2257;SDS011;1136;51.574;7.706;2023-07-28T00:49:06;5.70;;;4.10;;
2257;SDS011;1136;51.574;7.706;2023-07-28T00:52:14;4.77;;;4.33;;
2257;SDS011;1136;51.574;7.706;2023-07-28T00:55:22;5.13;;;4.73;;
2257;SDS011;1136;51.574;7.706;2023-07-28T00:58:30;7.23;;;4.30;;
2257;SDS011;1136;51.574;7.706;2023-07-28T01:01:37;4.47;;;4.17;;
2257;SDS011;1136;51.574;7.706;2023-07-28T01:04:44;5.33;;;3.73;;
2257;SDS011;1136;51.574;7.706;2023-07-28T01:11:00;5.77;;;4.07;;
2257;SDS011;1136;51.574;7.706;2023-07-28T01:14:07;4.73;;;3.50;;
2257;SDS011;1136;51.574;7.706;2023-07-28T01:17:15;3.13;;;3.00;;
2257;SDS011;1136;51.574;7.706;2023-07-28T01:20:22;3.70;;;3.50;;
2257;SDS011;1136;51.574;7.706;2023-07-28T01:26:45;3.33;;;3.13;;
2257;SDS011;1136;51.574;7.706;2023-07-28T01:29:53;3.77;;;3.37;;
2257;SDS011;1136;51.574;7.706;2023-07-28T01:33:00;3.70;;;3.20;;
2257;SDS011;1136;51.574;7.706;2023-07-28T01:36:07;5.13;;;3.40;;
2257;SDS011;1136;51.574;7.706;2023-07-28T01:39:15;7.20;;;3.50;;
2257;SDS011;1136;51.574;7.706;2023-07-28T01:42:22;3.10;;;2.53;;
2257;SDS011;1136;51.574;7.706;2023-07-28T01:45:29;2.30;;;2.20;;
2257;SDS011;1136;51.574;7.706;2023-07-28T01:48:37;2.37;;;2.27;;
2257;SDS011;1136;51.574;7.706;2023-07-28T01:51:44;2.53;;;2.33;;
2257;SDS011;1136;51.574;7.706;2023-07-28T01:54:52;2.93;;;1.93;;
2257;SDS011;1136;51.574;7.706;2023-07-28T01:58:00;5.37;;;2.67;;
2257;SDS011;1136;51.574;7.706;2023-07-28T02:01:08;2.97;;;2.77;;
2257;SDS011;1136;51.574;7.706;2023-07-28T02:04:15;2.77;;;1.97;;
2257;SDS011;1136;51.574;7.706;2023-07-28T02:07:23;2.83;;;1.90;;
2257;SDS011;1136;51.574;7.706;2023-07-28T02:10:30;2.27;;;2.07;;
2257;SDS011;1136;51.574;7.706;2023-07-28T02:13:37;3.83;;;2.00;;
2257;SDS011;1136;51.574;7.706;2023-07-28T02:16:45;2.83;;;1.67;;
2257;SDS011;1136;51.574;7.706;2023-07-28T02:19:52;2.60;;;1.97;;
2257;SDS011;1136;51.574;7.706;2023-07-28T02:22:59;1.70;;;1.60;;
2257;SDS011;1136;51.574;7.706;2023-07-28T02:26:06;2.10;;;2.00;;
2257;SDS011;1136;51.574;7.706;2023-07-28T02:29:14;2.07;;;1.97;;
2257;SDS011;1136;51.574;7.706;2023-07-28T02:32:21;2.53;;;2.30;;
2257;SDS011;1136;51.574;7.706;2023-07-28T02:35:28;4.07;;;2.00;;
2257;SDS011;1136;51.574;7.706;2023-07-28T02:38:35;6.50;;;2.50;;
2257;SDS011;1136;51.574;7.706;2023-07-28T02:41:43;2.67;;;2.57;;
2257;SDS011;1136;51.574;7.706;2023-07-28T02:44:51;2.03;;;1.83;;
2257;SDS011;1136;51.574;7.706;2023-07-28T02:47:58;1.70;;;1.60;;
2257;SDS011;1136;51.574;7.706;2023-07-28T02:51:05;2.50;;;2.30;;
2257;SDS011;1136;51.574;7.706;2023-07-28T02:54:13;3.57;;;2.43;;
2257;SDS011;1136;51.574;7.706;2023-07-28T02:57:20;4.70;;;2.00;;
2257;SDS011;1136;51.574;7.706;2023-07-28T03:00:27;5.60;;;2.10;;
2257;SDS011;1136;51.574;7.706;2023-07-28T03:03:34;2.20;;;1.73;;
2257;SDS011;1136;51.574;7.706;2023-07-28T03:06:42;4.03;;;2.67;;
2257;SDS011;1136;51.574;7.706;2023-07-28T03:09:49;2.90;;;1.67;;
2257;SDS011;1136;51.574;7.706;2023-07-28T03:12:56;2.17;;;1.97;;
2257;SDS011;1136;51.574;7.706;2023-07-28T03:16:04;3.83;;;1.90;;
2257;SDS011;1136;51.574;7.706;2023-07-28T03:19:11;4.30;;;1.83;;
2257;SDS011;1136;51.574;7.706;2023-07-28T03:22:18;2.20;;;2.10;;
2257;SDS011;1136;51.574;7.706;2023-07-28T03:25:25;1.90;;;1.80;;
2257;SDS011;1136;51.574;7.706;2023-07-28T03:28:33;2.00;;;1.80;;
2257;SDS011;1136;51.574;7.706;2023-07-28T03:31:40;2.10;;;2.00;;
2257;SDS011;1136;51.574;7.706;2023-07-28T03:34:48;2.40;;;1.63;;
2257;SDS011;1136;51.574;7.706;2023-07-28T03:37:55;1.77;;;1.67;;
2257;SDS011;1136;51.574;7.706;2023-07-28T03:41:02;1.43;;;1.33;;
2257;SDS011;1136;51.574;7.706;2023-07-28T03:44:09;3.13;;;1.70;;
2257;SDS011;1136;51.574;7.706;2023-07-28T03:47:17;1.50;;;1.40;;
2257;SDS011;1136;51.574;7.706;2023-07-28T03:50:24;1.70;;;1.60;;
2257;SDS011;1136;51.574;7.706;2023-07-28T03:53:33;2.33;;;1.30;;
2257;SDS011;1136;51.574;7.706;2023-07-28T03:56:42;3.37;;;1.80;;
2257;SDS011;1136;51.574;7.706;2023-07-28T03:59:49;3.67;;;1.27;;
2257;SDS011;1136;51.574;7.706;2023-07-28T04:02:56;6.93;;;1.90;;
2257;SDS011;1136;51.574;7.706;2023-07-28T04:06:09;1.37;;;1.20;;
2257;SDS011;1136;51.574;7.706;2023-07-28T04:09:17;3.03;;;1.53;;
2257;SDS011;1136;51.574;7.706;2023-07-28T04:12:25;2.13;;;1.30;;
2257;SDS011;1136;51.574;7.706;2023-07-28T04:15:32;2.17;;;1.77;;
2257;SDS011;1136;51.574;7.706;2023-07-28T04:18:39;6.40;;;1.80;;
2257;SDS011;1136;51.574;7.706;2023-07-28T04:21:46;1.53;;;1.43;;
2257;SDS011;1136;51.574;7.706;2023-07-28T04:24:53;2.73;;;1.43;;
2257;SDS011;1136;51.574;7.706;2023-07-28T04:28:01;3.67;;;1.70;;
2257;SDS011;1136;51.574;7.706;2023-07-28T04:31:08;1.63;;;1.53;;
2257;SDS011;1136;51.574;7.706;2023-07-28T04:34:16;2.00;;;1.90;;
2257;SDS011;1136;51.574;7.706;2023-07-28T04:37:23;1.70;;;1.60;;
2257;SDS011;1136;51.574;7.706;2023-07-28T04:40:30;2.43;;;1.70;;
2257;SDS011;1136;51.574;7.706;2023-07-28T04:43:37;3.20;;;1.47;;
2257;SDS011;1136;51.574;7.706;2023-07-28T04:46:44;1.63;;;1.53;;
2257;SDS011;1136;51.574;7.706;2023-07-28T04:49:54;1.60;;;1.50;;
2257;SDS011;1136;51.574;7.706;2023-07-28T04:53:01;2.03;;;1.60;;
2257;SDS011;1136;51.574;7.706;2023-07-28T04:56:09;2.77;;;1.63;;
2257;SDS011;1136;51.574;7.706;2023-07-28T04:59:16;2.43;;;1.43;;
2257;SDS011;1136;51.574;7.706;2023-07-28T05:02:23;2.17;;;1.40;;
2257;SDS011;1136;51.574;7.706;2023-07-28T05:05:31;1.70;;;1.60;;
2257;SDS011;1136;51.574;7.706;2023-07-28T05:08:38;1.47;;;1.37;;
2257;SDS011;1136;51.574;7.706;2023-07-28T05:11:45;1.30;;;1.20;;
2257;SDS011;1136;51.574;7.706;2023-07-28T05:14:54;1.50;;;1.40;;
2257;SDS011;1136;51.574;7.706;2023-07-28T05:18:02;1.47;;;1.37;;
2257;SDS011;1136;51.574;7.706;2023-07-28T05:21:09;1.77;;;1.33;;
2257;SDS011;1136;51.574;7.706;2023-07-28T05:24:16;1.60;;;1.50;;
2257;SDS011;1136;51.574;7.706;2023-07-28T05:27:24;3.53;;;1.90;;
2257;SDS011;1136;51.574;7.706;2023-07-28T05:30:32;2.83;;;1.90;;
2257;SDS011;1136;51.574;7.706;2023-07-28T05:33:39;1.87;;;1.77;;
2257;SDS011;1136;51.574;7.706;2023-07-28T05:36:46;1.83;;;1.73;;
2257;SDS011;1136;51.574;7.706;2023-07-28T05:39:54;1.53;;;1.43;;
2257;SDS011;1136;51.574;7.706;2023-07-28T05:43:01;1.67;;;1.57;;
2257;SDS011;1136;51.574;7.706;2023-07-28T05:46:08;3.67;;;1.57;;
2257;SDS011;1136;51.574;7.706;2023-07-28T05:49:15;1.90;;;1.70;;
2257;SDS011;1136;51.574;7.706;2023-07-28T05:52:23;2.57;;;1.77;;
2257;SDS011;1136;51.574;7.706;2023-07-28T05:55:30;8.47;;;2.40;;
2257;SDS011;1136;51.574;7.706;2023-07-28T05:58:37;1.80;;;1.70;;
2257;SDS011;1136;51.574;7.706;2023-07-28T06:01:44;6.50;;;4.20;;
2257;SDS011;1136;51.574;7.706;2023-07-28T06:04:52;3.43;;;3.23;;
2257;SDS011;1136;51.574;7.706;2023-07-28T06:08:00;1.87;;;1.77;;
2257;SDS011;1136;51.574;7.706;2023-07-28T06:11:07;1.70;;;1.60;;
2257;SDS011;1136;51.574;7.706;2023-07-28T06:14:14;1.80;;;1.70;;
2257;SDS011;1136;51.574;7.706;2023-07-28T06:17:21;1.83;;;1.73;;
2257;SDS011;1136;51.574;7.706;2023-07-28T06:20:29;2.13;;;1.93;;
2257;SDS011;1136;51.574;7.706;2023-07-28T06:23:36;2.00;;;1.90;;
2257;SDS011;1136;51.574;7.706;2023-07-28T06:26:44;2.10;;;1.90;;
2257;SDS011;1136;51.574;7.706;2023-07-28T06:29:51;2.17;;;1.90;;
2257;SDS011;1136;51.574;7.706;2023-07-28T06:32:58;1.83;;;1.40;;
2257;SDS011;1136;51.574;7.706;2023-07-28T06:36:05;2.07;;;1.97;;
2257;SDS011;1136;51.574;7.706;2023-07-28T06:39:13;1.73;;;1.63;;
2257;SDS011;1136;51.574;7.706;2023-07-28T06:42:20;3.10;;;2.00;;
2257;SDS011;1136;51.574;7.706;2023-07-28T06:45:30;1.90;;;1.80;;
2257;SDS011;1136;51.574;7.706;2023-07-28T06:48:37;1.60;;;1.50;;
2257;SDS011;1136;51.574;7.706;2023-07-28T06:51:45;2.00;;;1.90;;
2257;SDS011;1136;51.574;7.706;2023-07-28T06:54:52;2.17;;;2.07;;
2257;SDS011;1136;51.574;7.706;2023-07-28T06:58:01;9.40;;;2.60;;
2257;SDS011;1136;51.574;7.706;2023-07-28T07:01:08;2.90;;;2.70;;
2257;SDS011;1136;51.574;7.706;2023-07-28T07:04:18;3.07;;;2.87;;
2257;SDS011;1136;51.574;7.706;2023-07-28T07:07:26;4.27;;;3.97;;
2257;SDS011;1136;51.574;7.706;2023-07-28T07:10:36;3.43;;;3.23;;
2257;SDS011;1136;51.574;7.706;2023-07-28T07:13:44;4.37;;;3.97;;
2257;SDS011;1136;51.574;7.706;2023-07-28T07:16:51;5.23;;;4.77;;
2257;SDS011;1136;51.574;7.706;2023-07-28T07:19:58;4.87;;;4.57;;
2257;SDS011;1136;51.574;7.706;2023-07-28T07:23:06;4.70;;;4.40;;
2257;SDS011;1136;51.574;7.706;2023-07-28T07:26:14;5.13;;;4.13;;
2257;SDS011;1136;51.574;7.706;2023-07-28T07:29:21;4.77;;;4.37;;
2257;SDS011;1136;51.574;7.706;2023-07-28T07:32:28;4.60;;;4.30;;
2257;SDS011;1136;51.574;7.706;2023-07-28T07:35:36;6.07;;;5.60;;
2257;SDS011;1136;51.574;7.706;2023-07-28T07:38:45;6.60;;;6.00;;
2257;SDS011;1136;51.574;7.706;2023-07-28T07:41:58;5.47;;;4.97;;
2257;SDS011;1136;51.574;7.706;2023-07-28T07:45:06;5.20;;;4.70;;
2257;SDS011;1136;51.574;7.706;2023-07-28T07:48:14;4.60;;;4.20;;
2257;SDS011;1136;51.574;7.706;2023-07-28T07:51:21;4.67;;;4.30;;
2257;SDS011;1136;51.574;7.706;2023-07-28T07:54:28;3.40;;;3.10;;
2257;SDS011;1136;51.574;7.706;2023-07-28T07:57:35;3.70;;;3.40;;
2257;SDS011;1136;51.574;7.706;2023-07-28T08:00:43;4.57;;;4.00;;
2257;SDS011;1136;51.574;7.706;2023-07-28T08:03:51;3.50;;;3.20;;
2257;SDS011;1136;51.574;7.706;2023-07-28T08:06:58;3.90;;;3.60;;
2257;SDS011;1136;51.574;7.706;2023-07-28T08:10:05;5.70;;;4.20;;
2257;SDS011;1136;51.574;7.706;2023-07-28T08:13:13;6.10;;;4.10;;
2257;SDS011;1136;51.574;7.706;2023-07-28T08:16:21;4.60;;;4.20;;
2257;SDS011;1136;51.574;7.706;2023-07-28T08:19:28;4.43;;;4.17;;
2257;SDS011;1136;51.574;7.706;2023-07-28T08:22:35;4.53;;;4.17;;
2257;SDS011;1136;51.574;7.706;2023-07-28T08:25:43;5.50;;;4.97;;
2257;SDS011;1136;51.574;7.706;2023-07-28T08:28:50;7.13;;;6.50;;
2257;SDS011;1136;51.574;7.706;2023-07-28T08:31:57;6.50;;;5.90;;
2257;SDS011;1136;51.574;7.706;2023-07-28T08:35:04;5.30;;;4.90;;
2257;SDS011;1136;51.574;7.706;2023-07-28T08:38:12;6.33;;;5.83;;
2257;SDS011;1136;51.574;7.706;2023-07-28T08:41:19;7.00;;;6.50;;
2257;SDS011;1136;51.574;7.706;2023-07-28T08:44:33;6.93;;;6.40;;
2257;SDS011;1136;51.574;7.706;2023-07-28T08:47:40;7.70;;;7.00;;
2257;SDS011;1136;51.574;7.706;2023-07-28T08:50:48;6.17;;;5.77;;
2257;SDS011;1136;51.574;7.706;2023-07-28T08:53:55;6.80;;;6.30;;
2257;SDS011;1136;51.574;7.706;2023-07-28T08:57:02;7.57;;;7.00;;
2257;SDS011;1136;51.574;7.706;2023-07-28T09:00:10;8.37;;;7.67;;
2257;SDS011;1136;51.574;7.706;2023-07-28T09:03:21;9.00;;;8.30;;
2257;SDS011;1136;51.574;7.706;2023-07-28T09:06:29;11.77;;;10.77;;
2257;SDS011;1136;51.574;7.706;2023-07-28T09:09:38;13.13;;;12.03;;
2257;SDS011;1136;51.574;7.706;2023-07-28T09:12:47;13.80;;;12.60;;
2257;SDS011;1136;51.574;7.706;2023-07-28T09:15:56;14.07;;;12.77;;
2257;SDS011;1136;51.574;7.706;2023-07-28T09:19:06;15.77;;;14.30;;
2257;SDS011;1136;51.574;7.706;2023-07-28T09:22:14;15.63;;;14.27;;
2257;SDS011;1136;51.574;7.706;2023-07-28T09:25:21;17.50;;;16.00;;
2257;SDS011;1136;51.574;7.706;2023-07-28T09:28:38;17.53;;;15.80;;
2257;SDS011;1136;51.574;7.706;2023-07-28T09:31:47;16.30;;;14.83;;
2257;SDS011;1136;51.574;7.706;2023-07-28T09:38:16;13.90;;;12.70;;
2257;SDS011;1136;51.574;7.706;2023-07-28T09:41:25;10.80;;;9.90;;
2257;SDS011;1136;51.574;7.706;2023-07-28T09:44:32;11.90;;;10.13;;
2257;SDS011;1136;51.574;7.706;2023-07-28T09:47:39;11.53;;;10.53;;
2257;SDS011;1136;51.574;7.706;2023-07-28T09:50:48;14.40;;;13.20;;
2257;SDS011;1136;51.574;7.706;2023-07-28T09:53:56;14.40;;;13.00;;
2257;SDS011;1136;51.574;7.706;2023-07-28T09:57:08;13.80;;;12.37;;
2257;SDS011;1136;51.574;7.706;2023-07-28T10:00:20;13.73;;;12.53;;
2257;SDS011;1136;51.574;7.706;2023-07-28T10:03:29;12.97;;;11.77;;
2257;SDS011;1136;51.574;7.706;2023-07-28T10:06:37;13.23;;;12.03;;
2257;SDS011;1136;51.574;7.706;2023-07-28T10:09:45;10.73;;;9.90;;
2257;SDS011;1136;51.574;7.706;2023-07-28T10:12:53;12.40;;;10.97;;
2257;SDS011;1136;51.574;7.706;2023-07-28T10:16:02;12.50;;;11.40;;
2257;SDS011;1136;51.574;7.706;2023-07-28T10:19:10;12.03;;;11.13;;
2257;SDS011;1136;51.574;7.706;2023-07-28T10:22:17;10.90;;;10.00;;
2257;SDS011;1136;51.574;7.706;2023-07-28T10:25:25;10.00;;;8.63;;
2257;SDS011;1136;51.574;7.706;2023-07-28T10:28:37;8.10;;;7.50;;
2257;SDS011;1136;51.574;7.706;2023-07-28T10:31:54;7.60;;;7.00;;
2257;SDS011;1136;51.574;7.706;2023-07-28T10:35:07;8.17;;;3.87;;
2257;SDS011;1136;51.574;7.706;2023-07-28T10:38:28;3.30;;;3.10;;
2257;SDS011;1136;51.574;7.706;2023-07-28T10:41:36;2.83;;;2.63;;
2257;SDS011;1136;51.574;7.706;2023-07-28T10:44:44;1.70;;;1.60;;
2257;SDS011;1136;51.574;7.706;2023-07-28T10:47:51;1.30;;;1.20;;
2257;SDS011;1136;51.574;7.706;2023-07-28T10:50:59;1.50;;;1.40;;
2257;SDS011;1136;51.574;7.706;2023-07-28T10:54:10;3.00;;;2.37;;
2257;SDS011;1136;51.574;7.706;2023-07-28T10:57:23;4.10;;;3.80;;
2257;SDS011;1136;51.574;7.706;2023-07-28T11:00:33;4.70;;;3.60;;
2257;SDS011;1136;51.574;7.706;2023-07-28T11:03:40;2.97;;;2.83;;
2257;SDS011;1136;51.574;7.706;2023-07-28T11:06:48;1.70;;;1.60;;
2257;SDS011;1136;51.574;7.706;2023-07-28T11:09:56;1.50;;;1.40;;
2257;SDS011;1136;51.574;7.706;2023-07-28T11:13:05;1.83;;;1.73;;
2257;SDS011;1136;51.574;7.706;2023-07-28T11:16:33;2.00;;;1.90;;
2257;SDS011;1136;51.574;7.706;2023-07-28T11:19:42;3.10;;;2.90;;
2257;SDS011;1136;51.574;7.706;2023-07-28T11:22:54;3.40;;;3.20;;
2257;SDS011;1136;51.574;7.706;2023-07-28T11:26:05;3.00;;;2.90;;
2257;SDS011;1136;51.574;7.706;2023-07-28T11:29:12;4.50;;;4.10;;
2257;SDS011;1136;51.574;7.706;2023-07-28T11:32:19;5.27;;;4.97;;
2257;SDS011;1136;51.574;7.706;2023-07-28T11:35:27;4.60;;;4.30;;
2257;SDS011;1136;51.574;7.706;2023-07-28T11:38:35;4.93;;;4.53;;
2257;SDS011;1136;51.574;7.706;2023-07-28T11:41:44;4.80;;;4.50;;
2257;SDS011;1136;51.574;7.706;2023-07-28T11:44:52;6.03;;;5.50;;
2257;SDS011;1136;51.574;7.706;2023-07-28T11:48:01;7.80;;;7.30;;
2257;SDS011;1136;51.574;7.706;2023-07-28T11:51:12;9.70;;;8.90;;
2257;SDS011;1136;51.574;7.706;2023-07-28T11:54:21;12.53;;;11.43;;
2257;SDS011;1136;51.574;7.706;2023-07-28T11:57:29;10.77;;;9.90;;
2257;SDS011;1136;51.574;7.706;2023-07-28T12:00:40;10.23;;;9.33;;
2257;SDS011;1136;51.574;7.706;2023-07-28T12:03:49;8.57;;;7.87;;
2257;SDS011;1136;51.574;7.706;2023-07-28T12:10:20;5.87;;;5.37;;
2257;SDS011;1136;51.574;7.706;2023-07-28T12:13:30;4.33;;;3.97;;
2257;SDS011;1136;51.574;7.706;2023-07-28T12:16:41;3.50;;;3.30;;
2257;SDS011;1136;51.574;7.706;2023-07-28T12:20:07;3.90;;;3.70;;
2257;SDS011;1136;51.574;7.706;2023-07-28T12:23:20;2.70;;;2.60;;
2257;SDS011;1136;51.574;7.706;2023-07-28T12:26:31;3.07;;;2.60;;
2257;SDS011;1136;51.574;7.706;2023-07-28T12:29:39;3.13;;;2.80;;
2257;SDS011;1136;51.574;7.706;2023-07-28T12:33:06;2.40;;;2.30;;
2257;SDS011;1136;51.574;7.706;2023-07-28T12:36:14;1.90;;;1.80;;
2257;SDS011;1136;51.574;7.706;2023-07-28T12:39:24;3.73;;;2.00;;
2257;SDS011;1136;51.574;7.706;2023-07-28T12:42:34;2.40;;;2.30;;
2257;SDS011;1136;51.574;7.706;2023-07-28T12:45:44;2.57;;;2.37;;
2257;SDS011;1136;51.574;7.706;2023-07-28T12:48:54;2.30;;;2.10;;
2257;SDS011;1136;51.574;7.706;2023-07-28T12:52:03;2.60;;;2.40;;
2257;SDS011;1136;51.574;7.706;2023-07-28T12:55:11;1.70;;;1.60;;
2257;SDS011;1136;51.574;7.706;2023-07-28T12:58:21;2.30;;;2.20;;
2257;SDS011;1136;51.574;7.706;2023-07-28T13:01:32;2.03;;;1.80;;
2257;SDS011;1136;51.574;7.706;2023-07-28T13:04:39;2.70;;;2.30;;
2257;SDS011;1136;51.574;7.706;2023-07-28T13:07:47;2.47;;;1.80;;
2257;SDS011;1136;51.574;7.706;2023-07-28T13:10:57;1.77;;;1.67;;
2257;SDS011;1136;51.574;7.706;2023-07-28T13:14:07;2.27;;;2.07;;
2257;SDS011;1136;51.574;7.706;2023-07-28T13:17:14;1.87;;;1.77;;
2257;SDS011;1136;51.574;7.706;2023-07-28T13:20:23;2.23;;;2.13;;
2257;SDS011;1136;51.574;7.706;2023-07-28T13:23:30;1.67;;;1.57;;
2257;SDS011;1136;51.574;7.706;2023-07-28T13:26:38;1.97;;;1.77;;
2257;SDS011;1136;51.574;7.706;2023-07-28T13:29:45;2.43;;;1.97;;
2257;SDS011;1136;51.574;7.706;2023-07-28T13:32:52;1.70;;;1.60;;
2257;SDS011;1136;51.574;7.706;2023-07-28T13:36:00;2.10;;;2.00;;
2257;SDS011;1136;51.574;7.706;2023-07-28T13:39:10;3.23;;;2.43;;
2257;SDS011;1136;51.574;7.706;2023-07-28T13:42:18;2.30;;;2.20;;
2257;SDS011;1136;51.574;7.706;2023-07-28T13:45:25;1.50;;;1.40;;
2257;SDS011;1136;51.574;7.706;2023-07-28T13:48:32;3.00;;;1.47;;
2257;SDS011;1136;51.574;7.706;2023-07-28T13:51:58;1.70;;;1.60;;
2257;SDS011;1136;51.574;7.706;2023-07-28T13:55:08;1.73;;;1.60;;
2257;SDS011;1136;51.574;7.706;2023-07-28T13:58:18;1.97;;;1.60;;
2257;SDS011;1136;51.574;7.706;2023-07-28T14:01:25;1.40;;;1.30;;
2257;SDS011;1136;51.574;7.706;2023-07-28T14:04:33;3.43;;;1.90;;
2257;SDS011;1136;51.574;7.706;2023-07-28T14:07:40;1.70;;;1.60;;
2257;SDS011;1136;51.574;7.706;2023-07-28T14:10:47;1.30;;;1.20;;
2257;SDS011;1136;51.574;7.706;2023-07-28T14:13:54;1.53;;;1.43;;
2257;SDS011;1136;51.574;7.706;2023-07-28T14:17:02;1.47;;;1.37;;
2257;SDS011;1136;51.574;7.706;2023-07-28T14:20:09;2.00;;;1.60;;
2257;SDS011;1136;51.574;7.706;2023-07-28T14:23:25;1.50;;;1.40;;
2257;SDS011;1136;51.574;7.706;2023-07-28T14:26:33;1.17;;;1.07;;
2257;SDS011;1136;51.574;7.706;2023-07-28T14:29:40;1.83;;;1.73;;
2257;SDS011;1136;51.574;7.706;2023-07-28T14:32:47;3.20;;;2.93;;
2257;SDS011;1136;51.574;7.706;2023-07-28T14:35:55;2.00;;;1.90;;
2257;SDS011;1136;51.574;7.706;2023-07-28T14:39:02;1.93;;;1.70;;
2257;SDS011;1136;51.574;7.706;2023-07-28T14:42:10;2.30;;;2.20;;
2257;SDS011;1136;51.574;7.706;2023-07-28T14:45:17;2.37;;;2.10;;
2257;SDS011;1136;51.574;7.706;2023-07-28T14:48:24;2.50;;;2.30;;
2257;SDS011;1136;51.574;7.706;2023-07-28T14:51:31;2.43;;;2.23;;
2257;SDS011;1136;51.574;7.706;2023-07-28T14:54:39;1.80;;;1.70;;
2257;SDS011;1136;51.574;7.706;2023-07-28T14:57:46;2.00;;;1.90;;
2257;SDS011;1136;51.574;7.706;2023-07-28T15:00:53;2.13;;;2.03;;
2257;SDS011;1136;51.574;7.706;2023-07-28T15:04:00;2.20;;;2.10;;
2257;SDS011;1136;51.574;7.706;2023-07-28T15:07:09;2.70;;;2.60;;
2257;SDS011;1136;51.574;7.706;2023-07-28T15:10:17;3.20;;;3.10;;
2257;SDS011;1136;51.574;7.706;2023-07-28T15:13:24;3.30;;;3.17;;
2257;SDS011;1136;51.574;7.706;2023-07-28T15:16:31;2.73;;;2.47;;
2257;SDS011;1136;51.574;7.706;2023-07-28T15:19:39;3.73;;;3.40;;
2257;SDS011;1136;51.574;7.706;2023-07-28T15:22:46;2.50;;;2.40;;
2257;SDS011;1136;51.574;7.706;2023-07-28T15:25:56;2.40;;;2.20;;
2257;SDS011;1136;51.574;7.706;2023-07-28T15:29:06;2.07;;;1.97;;
2257;SDS011;1136;51.574;7.706;2023-07-28T15:32:13;4.90;;;3.57;;
2257;SDS011;1136;51.574;7.706;2023-07-28T15:35:21;3.00;;;1.50;;
2257;SDS011;1136;51.574;7.706;2023-07-28T15:38:29;1.83;;;1.60;;
2257;SDS011;1136;51.574;7.706;2023-07-28T15:41:36;3.60;;;1.40;;
2257;SDS011;1136;51.574;7.706;2023-07-28T15:44:44;1.57;;;1.17;;
2257;SDS011;1136;51.574;7.706;2023-07-28T15:47:51;1.50;;;1.40;;
2257;SDS011;1136;51.574;7.706;2023-07-28T15:50:58;1.67;;;1.50;;
2257;SDS011;1136;51.574;7.706;2023-07-28T15:54:06;1.70;;;1.60;;
2257;SDS011;1136;51.574;7.706;2023-07-28T15:57:13;2.03;;;1.70;;
2257;SDS011;1136;51.574;7.706;2023-07-28T16:00:21;1.90;;;1.80;;
2257;SDS011;1136;51.574;7.706;2023-07-28T16:03:28;1.47;;;1.37;;
2257;SDS011;1136;51.574;7.706;2023-07-28T16:06:35;1.83;;;1.50;;
2257;SDS011;1136;51.574;7.706;2023-07-28T16:09:43;1.40;;;1.30;;
2257;SDS011;1136;51.574;7.706;2023-07-28T16:12:50;1.70;;;1.60;;
2257;SDS011;1136;51.574;7.706;2023-07-28T16:15:58;1.57;;;1.47;;
2257;SDS011;1136;51.574;7.706;2023-07-28T16:19:05;1.50;;;1.40;;
2257;SDS011;1136;51.574;7.706;2023-07-28T16:22:13;2.80;;;2.57;;
2257;SDS011;1136;51.574;7.706;2023-07-28T16:25:20;1.67;;;1.57;;
2257;SDS011;1136;51.574;7.706;2023-07-28T16:28:27;1.30;;;1.20;;
2257;SDS011;1136;51.574;7.706;2023-07-28T16:31:34;1.27;;;1.17;;
2257;SDS011;1136;51.574;7.706;2023-07-28T16:34:42;1.40;;;1.30;;
2257;SDS011;1136;51.574;7.706;2023-07-28T16:37:49;1.10;;;1.10;;
2257;SDS011;1136;51.574;7.706;2023-07-28T16:40:57;1.40;;;1.30;;
2257;SDS011;1136;51.574;7.706;2023-07-28T16:44:04;1.40;;;1.30;;
2257;SDS011;1136;51.574;7.706;2023-07-28T16:47:12;1.30;;;1.20;;
2257;SDS011;1136;51.574;7.706;2023-07-28T16:50:19;1.40;;;1.30;;
2257;SDS011;1136;51.574;7.706;2023-07-28T16:53:27;1.77;;;1.60;;
2257;SDS011;1136;51.574;7.706;2023-07-28T16:56:36;2.60;;;2.40;;
2257;SDS011;1136;51.574;7.706;2023-07-28T16:59:45;4.20;;;3.90;;
2257;SDS011;1136;51.574;7.706;2023-07-28T17:02:52;4.30;;;3.97;;
2257;SDS011;1136;51.574;7.706;2023-07-28T17:06:00;3.20;;;2.10;;
2257;SDS011;1136;51.574;7.706;2023-07-28T17:09:07;1.33;;;1.23;;
2257;SDS011;1136;51.574;7.706;2023-07-28T17:12:15;1.10;;;1.00;;
2257;SDS011;1136;51.574;7.706;2023-07-28T17:15:22;1.70;;;1.60;;
2257;SDS011;1136;51.574;7.706;2023-07-28T17:18:45;1.60;;;1.50;;
2257;SDS011;1136;51.574;7.706;2023-07-28T17:21:54;1.90;;;1.10;;
2257;SDS011;1136;51.574;7.706;2023-07-28T17:25:02;1.30;;;1.20;;
2257;SDS011;1136;51.574;7.706;2023-07-28T17:28:10;1.37;;;1.10;;
2257;SDS011;1136;51.574;7.706;2023-07-28T17:31:18;1.20;;;1.10;;
2257;SDS011;1136;51.574;7.706;2023-07-28T17:34:25;1.30;;;1.20;;
2257;SDS011;1136;51.574;7.706;2023-07-28T17:37:36;2.17;;;1.43;;
2257;SDS011;1136;51.574;7.706;2023-07-28T17:40:43;1.30;;;1.20;;
2257;SDS011;1136;51.574;7.706;2023-07-28T17:43:50;1.50;;;1.40;;
2257;SDS011;1136;51.574;7.706;2023-07-28T17:46:58;1.70;;;1.60;;
2257;SDS011;1136;51.574;7.706;2023-07-28T17:50:06;2.10;;;1.33;;
2257;SDS011;1136;51.574;7.706;2023-07-28T17:53:15;1.50;;;1.40;;
2257;SDS011;1136;51.574;7.706;2023-07-28T17:56:23;1.50;;;1.40;;
2257;SDS011;1136;51.574;7.706;2023-07-28T17:59:31;1.77;;;1.43;;
2257;SDS011;1136;51.574;7.706;2023-07-28T18:02:38;1.50;;;1.40;;
2257;SDS011;1136;51.574;7.706;2023-07-28T18:05:46;1.60;;;1.50;;
2257;SDS011;1136;51.574;7.706;2023-07-28T18:08:53;2.60;;;1.50;;
2257;SDS011;1136;51.574;7.706;2023-07-28T18:12:00;2.03;;;1.87;;
2257;SDS011;1136;51.574;7.706;2023-07-28T18:15:10;1.63;;;1.53;;
2257;SDS011;1136;51.574;7.706;2023-07-28T18:18:17;5.23;;;1.63;;
2257;SDS011;1136;51.574;7.706;2023-07-28T18:21:24;2.40;;;1.73;;
2257;SDS011;1136;51.574;7.706;2023-07-28T18:24:31;1.50;;;1.40;;
2257;SDS011;1136;51.574;7.706;2023-07-28T18:27:39;1.57;;;1.43;;
2257;SDS011;1136;51.574;7.706;2023-07-28T18:30:46;2.10;;;2.00;;
2257;SDS011;1136;51.574;7.706;2023-07-28T18:33:53;1.30;;;1.20;;
2257;SDS011;1136;51.574;7.706;2023-07-28T18:37:01;1.63;;;1.53;;
2257;SDS011;1136;51.574;7.706;2023-07-28T18:40:08;2.40;;;1.60;;
2257;SDS011;1136;51.574;7.706;2023-07-28T18:43:15;5.43;;;1.77;;
2257;SDS011;1136;51.574;7.706;2023-07-28T18:46:22;1.57;;;1.47;;
2257;SDS011;1136;51.574;7.706;2023-07-28T18:49:30;1.67;;;1.57;;
2257;SDS011;1136;51.574;7.706;2023-07-28T18:52:37;1.87;;;1.70;;
2257;SDS011;1136;51.574;7.706;2023-07-28T18:55:44;1.40;;;1.30;;
2257;SDS011;1136;51.574;7.706;2023-07-28T18:58:52;2.80;;;2.60;;
2257;SDS011;1136;51.574;7.706;2023-07-28T19:01:59;1.50;;;1.40;;
2257;SDS011;1136;51.574;7.706;2023-07-28T19:05:06;1.40;;;1.30;;
2257;SDS011;1136;51.574;7.706;2023-07-28T19:08:15;1.73;;;1.60;;
2257;SDS011;1136;51.574;7.706;2023-07-28T19:11:23;1.80;;;1.70;;
2257;SDS011;1136;51.574;7.706;2023-07-28T19:14:30;2.90;;;2.10;;
2257;SDS011;1136;51.574;7.706;2023-07-28T19:17:38;4.23;;;1.70;;
2257;SDS011;1136;51.574;7.706;2023-07-28T19:20:45;2.50;;;1.73;;
2257;SDS011;1136;51.574;7.706;2023-07-28T19:23:52;4.53;;;2.00;;
2257;SDS011;1136;51.574;7.706;2023-07-28T19:27:00;2.33;;;2.00;;
2257;SDS011;1136;51.574;7.706;2023-07-28T19:30:07;2.00;;;1.90;;
2257;SDS011;1136;51.574;7.706;2023-07-28T19:33:15;2.30;;;2.10;;
2257;SDS011;1136;51.574;7.706;2023-07-28T19:36:23;2.47;;;2.13;;
2257;SDS011;1136;51.574;7.706;2023-07-28T19:39:31;2.20;;;2.07;;